Time,TemperatureF,DewpointF,PressureIn,WindDirection,WindDirectionDegrees,WindSpeedMPH,WindSpeedGustMPH,Humidity,HourlyPrecipIn,Conditions,Clouds,dailyrainin,SoftwareType,DateUTC
2013-01-29 00:03:00,67.8,62.5,29.86,SSE,163,10.0,18.0,83,0.00,,---,0.00,VWS V14.01,2013-01-29 06:03:00,
2013-01-29 00:08:00,67.6,62.6,29.86,SSE,152,11.0,18.0,84,0.00,,---,0.00,VWS V14.01,2013-01-29 06:08:00,
2013-01-29 00:13:00,67.6,62.9,29.85,SSE,165,11.0,18.0,85,0.00,,---,0.00,VWS V14.01,2013-01-29 06:13:00,
2013-01-29 00:18:00,67.7,63.0,29.85,SSW,195,10.0,19.0,85,0.00,,---,0.00,VWS V14.01,2013-01-29 06:18:00,
2013-01-29 00:23:00,67.8,63.1,29.85,SSE,159,10.0,19.0,85,0.00,,---,0.00,VWS V14.01,2013-01-29 06:23:00,
2013-01-29 00:28:00,67.7,62.7,29.85,South,176,11.0,19.0,84,0.00,,---,0.00,VWS V14.01,2013-01-29 06:28:00,
2013-01-29 00:33:00,67.6,62.9,29.85,SSE,163,14.0,14.0,85,0.00,,---,0.00,VWS V14.01,2013-01-29 06:33:00,
2013-01-29 00:38:00,67.5,62.8,29.85,SSE,162,8.0,17.0,85,0.00,,---,0.00,VWS V14.01,2013-01-29 06:38:00,
2013-01-29 00:43:00,67.6,63.3,29.85,South,170,7.0,20.0,86,0.00,,---,0.00,VWS V14.01,2013-01-29 06:43:00,
2013-01-29 00:48:00,67.6,63.6,29.84,South,183,14.0,20.0,87,0.00,,---,0.00,VWS V14.01,2013-01-29 06:48:00,
2013-01-29 00:53:00,67.4,63.4,29.84,South,170,14.0,20.0,87,0.00,,---,0.00,VWS V14.01,2013-01-29 06:53:00,
2013-01-29 00:58:00,67.0,63.0,29.84,SSE,163,8.0,20.0,87,0.00,,---,0.00,VWS V14.01,2013-01-29 06:58:00,
2013-01-29 01:03:00,66.7,63.0,29.84,SE,146,7.0,12.0,88,0.00,,---,0.00,VWS V14.01,2013-01-29 07:03:00,
2013-01-29 01:08:00,66.6,63.3,29.84,SSE,158,5.0,14.0,89,0.00,,---,0.00,VWS V14.01,2013-01-29 07:08:00,
2013-01-29 01:13:00,66.4,63.4,29.85,SSE,163,9.0,14.0,90,0.00,,---,0.00,VWS V14.01,2013-01-29 07:13:00,
2013-01-29 01:18:00,66.4,63.7,29.84,South,171,7.0,14.0,91,0.00,,---,0.00,VWS V14.01,2013-01-29 07:18:00,
2013-01-29 01:23:00,66.3,63.6,29.85,SSE,150,7.0,14.0,91,0.00,,---,0.00,VWS V14.01,2013-01-29 07:23:00,
2013-01-29 01:28:00,66.3,63.6,29.85,South,172,8.0,14.0,91,0.00,,---,0.00,VWS V14.01,2013-01-29 07:28:00,
2013-01-29 01:33:00,66.4,64.0,29.85,SSE,158,7.0,9.0,92,0.00,,---,0.00,VWS V14.01,2013-01-29 07:33:00,
2013-01-29 01:38:00,66.3,63.6,29.85,South,174,8.0,11.0,91,0.00,,---,0.00,VWS V14.01,2013-01-29 07:38:00,
2013-01-29 01:43:00,66.2,63.8,29.86,SSE,155,7.0,11.0,92,0.00,,---,0.00,VWS V14.01,2013-01-29 07:43:00,
2013-01-29 01:48:00,66.1,63.7,29.85,SSE,156,7.0,11.0,92,0.00,,---,0.00,VWS V14.01,2013-01-29 07:48:00,
2013-01-29 01:53:00,66.0,63.6,29.85,South,176,6.0,11.0,92,0.00,,---,0.00,VWS V14.01,2013-01-29 07:53:00,
2013-01-29 01:58:00,65.8,63.4,29.85,South,169,4.0,11.0,92,0.00,,---,0.00,VWS V14.01,2013-01-29 07:58:00,
2013-01-29 02:03:00,65.4,63.0,29.84,SSE,159,3.0,6.0,92,0.00,,---,0.00,VWS V14.01,2013-01-29 08:03:00,
2013-01-29 02:08:00,64.9,62.5,29.84,SSE,161,2.0,6.0,92,0.00,,---,0.00,VWS V14.01,2013-01-29 08:08:00,
2013-01-29 02:13:00,64.6,62.5,29.84,SSE,161,3.0,6.0,93,0.00,,---,0.00,VWS V14.01,2013-01-29 08:13:00,
2013-01-29 02:18:00,64.6,62.8,29.84,SE,136,2.0,6.0,94,0.00,,---,0.00,VWS V14.01,2013-01-29 08:18:00,
2013-01-29 02:23:00,64.5,62.7,29.83,SE,131,2.0,6.0,94,0.00,,---,0.00,VWS V14.01,2013-01-29 08:23:00,
2013-01-29 02:28:00,64.1,62.3,29.83,ESE,119,3.0,6.0,94,0.00,,---,0.00,VWS V14.01,2013-01-29 08:28:00,
2013-01-29 02:33:00,64.0,62.2,29.83,ESE,111,5.0,6.0,94,0.00,,---,0.00,VWS V14.01,2013-01-29 08:33:00,
2013-01-29 02:38:00,63.8,62.0,29.82,SE,126,5.0,8.0,94,0.00,,---,0.00,VWS V14.01,2013-01-29 08:38:00,
2013-01-29 02:43:00,63.3,61.5,29.82,ESE,104,8.0,8.0,94,0.00,,---,0.00,VWS V14.01,2013-01-29 08:43:00,
2013-01-29 02:48:00,63.9,62.7,29.82,ESE,114,9.0,10.0,96,0.00,,---,0.00,VWS V14.01,2013-01-29 08:48:00,
2013-01-29 02:53:00,64.2,62.7,29.82,SE,134,5.0,11.0,95,0.00,,---,0.00,VWS V14.01,2013-01-29 08:53:00,
2013-01-29 02:58:00,64.1,62.6,29.82,SSE,159,5.0,11.0,95,0.00,,---,0.00,VWS V14.01,2013-01-29 08:58:00,
2013-01-29 03:03:00,63.9,62.4,29.81,ESE,114,6.0,9.0,95,0.00,,---,0.00,VWS V14.01,2013-01-29 09:03:00,
2013-01-29 03:08:00,64.1,62.6,29.81,ESE,114,7.0,12.0,95,0.00,,---,0.00,VWS V14.01,2013-01-29 09:08:00,
2013-01-29 03:13:00,64.0,62.5,29.80,ESE,114,9.0,12.0,95,0.00,,---,0.00,VWS V14.01,2013-01-29 09:13:00,
2013-01-29 03:18:00,64.5,63.3,29.79,ESE,117,8.0,14.0,96,0.00,,---,0.00,VWS V14.01,2013-01-29 09:18:00,
2013-01-29 03:23:00,64.3,62.5,29.79,SE,132,7.0,14.0,94,0.00,,---,0.00,VWS V14.01,2013-01-29 09:23:00,
2013-01-29 03:28:00,64.2,62.4,29.79,ESE,104,4.0,14.0,94,0.00,,---,0.00,VWS V14.01,2013-01-29 09:28:00,
2013-01-29 03:33:00,64.2,62.7,29.79,SSE,151,10.0,11.0,95,0.00,,---,0.00,VWS V14.01,2013-01-29 09:33:00,
2013-01-29 03:38:00,64.3,62.8,29.79,SSE,151,7.0,11.0,95,0.00,,---,0.00,VWS V14.01,2013-01-29 09:38:00,
2013-01-29 03:43:00,64.1,62.3,29.79,SE,132,6.0,13.0,94,0.00,,---,0.00,VWS V14.01,2013-01-29 09:43:00,
2013-01-29 03:48:00,64.2,62.7,29.79,SE,143,6.0,13.0,95,0.00,,---,0.00,VWS V14.01,2013-01-29 09:48:00,
2013-01-29 03:53:00,63.9,62.1,29.79,SE,141,3.0,13.0,94,0.00,,---,0.00,VWS V14.01,2013-01-29 09:53:00,
2013-01-29 03:58:00,63.7,62.0,29.79,SSE,151,5.0,13.0,94,0.00,,---,0.00,VWS V14.01,2013-01-29 09:58:00,
2013-01-29 04:03:00,63.8,62.3,29.79,SSE,156,3.0,5.0,95,0.00,,---,0.00,VWS V14.01,2013-01-29 10:03:00,
2013-01-29 04:08:00,64.3,63.1,29.79,SW,228,4.0,9.0,96,0.00,,---,0.00,VWS V14.01,2013-01-29 10:08:00,
2013-01-29 04:12:00,64.9,63.7,29.79,South,180,4.0,12.0,96,0.00,,---,0.00,VWS V14.01,2013-01-29 10:12:00,
2013-01-29 04:17:00,65.2,64.0,29.79,SSE,147,4.0,12.0,96,0.00,,---,0.00,VWS V14.01,2013-01-29 10:17:00,
2013-01-29 04:22:00,64.8,62.7,29.78,SSE,153,4.0,12.0,93,0.00,,---,0.00,VWS V14.01,2013-01-29 10:22:00,
2013-01-29 04:27:00,64.3,62.5,29.78,SSE,153,5.0,12.0,94,0.00,,---,0.00,VWS V14.01,2013-01-29 10:27:00,
2013-01-29 04:32:00,64.5,62.7,29.78,SSE,160,4.0,8.0,94,0.00,,---,0.00,VWS V14.01,2013-01-29 10:32:00,
2013-01-29 04:37:00,64.7,63.2,29.78,South,172,5.0,9.0,95,0.00,,---,0.00,VWS V14.01,2013-01-29 10:37:00,
2013-01-29 04:42:00,64.9,63.1,29.78,SE,141,2.0,9.0,94,0.00,,---,0.00,VWS V14.01,2013-01-29 10:42:00,
2013-01-29 04:47:00,64.8,63.0,29.78,SSE,165,3.0,9.0,94,0.00,,---,0.00,VWS V14.01,2013-01-29 10:47:00,
2013-01-29 04:52:00,64.5,62.7,29.78,ESE,120,3.0,9.0,94,0.00,,---,0.00,VWS V14.01,2013-01-29 10:52:00,
2013-01-29 04:57:00,65.2,63.7,29.78,SSE,147,5.0,9.0,95,0.00,,---,0.00,VWS V14.01,2013-01-29 10:57:00,
2013-01-29 05:02:00,65.8,64.3,29.78,South,176,4.0,7.0,95,0.00,,---,0.00,VWS V14.01,2013-01-29 11:02:00,
2013-01-29 05:07:00,66.1,64.3,29.78,South,176,6.0,11.0,94,0.00,,---,0.00,VWS V14.01,2013-01-29 11:07:00,
2013-01-29 05:12:00,66.2,64.4,29.78,SSW,200,8.0,11.0,94,0.00,,---,0.00,VWS V14.01,2013-01-29 11:12:00,
2013-01-29 05:17:00,66.2,64.1,29.78,SSE,166,6.0,11.0,93,0.00,,---,0.00,VWS V14.01,2013-01-29 11:17:00,
2013-01-29 05:22:00,66.3,64.2,29.78,SSE,153,10.0,11.0,93,0.00,,---,0.00,VWS V14.01,2013-01-29 11:22:00,
2013-01-29 05:27:00,66.3,64.2,29.78,SE,130,9.0,12.0,93,0.00,,---,0.00,VWS V14.01,2013-01-29 11:27:00,
2013-01-29 05:32:00,66.3,64.2,29.78,South,170,7.0,11.0,93,0.00,,---,0.00,VWS V14.01,2013-01-29 11:32:00,
2013-01-29 05:37:00,66.3,64.2,29.77,SSE,151,6.0,13.0,93,0.00,,---,0.00,VWS V14.01,2013-01-29 11:37:00,
2013-01-29 05:42:00,65.8,63.1,29.77,ESE,121,6.0,13.0,91,0.00,,---,0.00,VWS V14.01,2013-01-29 11:42:00,
2013-01-29 05:47:00,65.5,63.1,29.76,SE,146,6.0,13.0,92,0.00,,---,0.00,VWS V14.01,2013-01-29 11:47:00,
2013-01-29 05:52:00,65.0,62.6,29.76,SSE,153,7.0,13.0,92,0.00,,---,0.00,VWS V14.01,2013-01-29 11:52:00,
2013-01-29 05:57:00,65.4,63.6,29.76,SE,145,6.0,14.0,94,0.00,,---,0.00,VWS V14.01,2013-01-29 11:57:00,
2013-01-29 06:02:00,65.3,62.9,29.76,SE,137,5.0,8.0,92,0.00,,---,0.00,VWS V14.01,2013-01-29 12:02:00,
2013-01-29 06:07:00,65.3,62.9,29.76,SSE,153,5.0,12.0,92,0.00,,---,0.00,VWS V14.01,2013-01-29 12:07:00,
2013-01-29 06:12:00,65.6,63.5,29.76,SSE,151,10.0,12.0,93,0.00,,---,0.00,VWS V14.01,2013-01-29 12:12:00,
2013-01-29 06:17:00,65.6,63.2,29.76,SSE,153,7.0,12.0,92,0.00,,---,0.00,VWS V14.01,2013-01-29 12:17:00,
2013-01-29 06:22:00,66.0,63.9,29.76,SE,142,8.0,16.0,93,0.00,,---,0.00,VWS V14.01,2013-01-29 12:22:00,
2013-01-29 06:27:00,66.0,63.6,29.76,SSE,153,6.0,16.0,92,0.00,,---,0.00,VWS V14.01,2013-01-29 12:27:00,
2013-01-29 06:32:00,66.3,63.6,29.76,SSE,153,9.0,10.0,91,0.00,,---,0.00,VWS V14.01,2013-01-29 12:32:00,
2013-01-29 06:37:00,66.1,63.1,29.76,SSE,151,10.0,15.0,90,0.00,,---,0.00,VWS V14.01,2013-01-29 12:37:00,
2013-01-29 07:00:00,66.5,63.8,29.74,SSE,158,8.0,16.0,91,0.00,,---,0.00,VWS V14.01,2013-01-29 13:00:00,
2013-01-29 07:30:00,67.7,64.3,29.75,SSE,158,9.0,23.0,89,0.00,,---,0.00,VWS V14.01,2013-01-29 13:30:00,
2013-01-29 08:00:00,67.5,64.2,29.74,SSE,158,9.0,20.0,89,0.00,,---,0.00,VWS V14.01,2013-01-29 14:00:00,
2013-01-29 08:30:00,66.9,63.9,29.73,SSE,158,8.0,17.0,90,0.00,,---,0.00,VWS V14.01,2013-01-29 14:30:00,
2013-01-29 09:00:00,67.1,64.1,29.71,SSE,158,8.0,15.0,90,0.00,,---,0.00,VWS V14.01,2013-01-29 15:00:00,
2013-01-29 09:30:00,68.6,64.6,29.70,SSE,158,9.0,23.0,87,0.00,,---,0.00,VWS V14.01,2013-01-29 15:30:00,
2013-01-29 10:00:00,68.4,65.0,29.69,SSE,158,12.0,27.0,89,0.00,,---,0.00,VWS V14.01,2013-01-29 16:00:00,
2013-01-29 10:30:00,68.3,64.6,29.68,SSE,158,13.0,24.0,88,0.00,,---,0.00,VWS V14.01,2013-01-29 16:30:00,
2013-01-29 11:00:00,68.0,64.3,29.65,SSE,158,10.0,20.0,88,0.00,,---,0.00,VWS V14.01,2013-01-29 17:00:00,
2013-01-29 11:30:00,69.2,65.2,29.64,SSE,158,11.0,24.0,87,0.00,,---,0.00,VWS V14.01,2013-01-29 17:30:00,
2013-01-29 12:00:00,70.6,65.5,29.62,SSE,158,13.0,23.0,84,0.00,,---,0.00,VWS V14.01,2013-01-29 18:00:00,
2013-01-29 12:30:00,68.3,65.3,29.59,SSE,158,11.0,20.0,90,0.11,,---,0.11,VWS V14.01,2013-01-29 18:30:00,
2013-01-29 13:00:00,67.7,64.3,29.56,SSE,158,9.0,22.0,89,0.27,,---,0.27,VWS V14.01,2013-01-29 19:00:00,
2013-01-29 13:30:00,69.8,65.8,29.54,SSE,158,12.0,22.0,87,0.27,,---,0.27,VWS V14.01,2013-01-29 19:30:00,
2013-01-29 14:00:00,69.9,65.2,29.51,SSE,158,11.0,20.0,85,0.16,,---,0.27,VWS V14.01,2013-01-29 20:00:00,
2013-01-29 14:52:00,69.9,65.2,29.51,SSE,158,11.0,20.0,85,0.16,,---,0.27,VWS V14.01,2013-01-29 20:52:00,
2013-01-29 14:57:00,73.7,65.7,29.48,SE,133,13.0,28.0,76,0.00,,---,0.27,VWS V14.01,2013-01-29 20:57:00,
2013-01-29 15:02:00,73.6,65.6,29.48,SSW,210,14.0,19.0,76,0.00,,---,0.27,VWS V14.01,2013-01-29 21:02:00,
2013-01-29 15:07:00,73.3,64.9,29.47,SSE,159,22.0,25.0,75,0.00,,---,0.27,VWS V14.01,2013-01-29 21:07:00,
2013-01-29 15:12:00,73.2,65.2,29.46,ESE,107,9.0,25.0,76,0.00,,---,0.27,VWS V14.01,2013-01-29 21:12:00,
2013-01-29 15:17:00,72.8,64.8,29.46,South,176,13.0,25.0,76,0.00,,---,0.27,VWS V14.01,2013-01-29 21:17:00,
2013-01-29 15:22:00,72.6,64.6,29.46,South,180,11.0,25.0,76,0.00,,---,0.27,VWS V14.01,2013-01-29 21:22:00,
2013-01-29 15:27:00,72.4,64.8,29.46,South,169,17.0,25.0,77,0.00,,---,0.27,VWS V14.01,2013-01-29 21:27:00,
2013-01-29 15:32:00,72.9,64.9,29.46,SSE,158,14.0,26.0,76,0.00,,---,0.27,VWS V14.01,2013-01-29 21:32:00,
2013-01-29 15:37:00,72.9,64.5,29.46,South,174,15.0,26.0,75,0.00,,---,0.27,VWS V14.01,2013-01-29 21:37:00,
2013-01-29 15:42:00,73.1,65.1,29.46,SSE,156,23.0,27.0,76,0.00,,---,0.27,VWS V14.01,2013-01-29 21:42:00,
2013-01-29 15:47:00,73.2,64.8,29.45,South,188,15.0,27.0,75,0.00,,---,0.27,VWS V14.01,2013-01-29 21:47:00,
2013-01-29 15:52:00,73.6,65.2,29.45,SSE,159,16.0,27.0,75,0.00,,---,0.27,VWS V14.01,2013-01-29 21:52:00,
2013-01-29 15:57:00,74.0,65.2,29.45,SSE,156,20.0,27.0,74,0.00,,---,0.27,VWS V14.01,2013-01-29 21:57:00,
2013-01-29 16:02:00,74.1,65.3,29.45,South,176,12.0,24.0,74,0.00,,---,0.27,VWS V14.01,2013-01-29 22:02:00,
2013-01-29 16:07:00,74.2,65.4,29.44,SSE,167,15.0,24.0,74,0.00,,---,0.27,VWS V14.01,2013-01-29 22:07:00,
2013-01-29 16:12:00,74.3,64.7,29.44,South,170,14.0,26.0,72,0.00,,---,0.27,VWS V14.01,2013-01-29 22:12:00,
2013-01-29 16:17:00,74.0,64.4,29.44,SSE,166,21.0,26.0,72,0.00,,---,0.27,VWS V14.01,2013-01-29 22:17:00,
2013-01-29 16:22:00,74.3,65.5,29.45,SSE,159,21.0,26.0,74,0.00,,---,0.27,VWS V14.01,2013-01-29 22:22:00,
2013-01-29 16:27:00,74.9,65.7,29.45,South,181,11.0,26.0,73,0.00,,---,0.27,VWS V14.01,2013-01-29 22:27:00,
2013-01-29 16:32:00,75.2,65.6,29.45,South,172,13.0,25.0,72,0.00,,---,0.27,VWS V14.01,2013-01-29 22:32:00,
2013-01-29 16:37:00,75.3,65.3,29.45,SSE,158,17.0,26.0,71,0.00,,---,0.27,VWS V14.01,2013-01-29 22:37:00,
2013-01-29 16:42:00,75.4,65.3,29.45,South,174,14.0,26.0,71,0.00,,---,0.27,VWS V14.01,2013-01-29 22:42:00,
2013-01-29 16:47:00,74.9,64.9,29.45,SSE,159,8.0,26.0,71,0.00,,---,0.27,VWS V14.01,2013-01-29 22:47:00,
2013-01-29 16:52:00,73.9,64.3,29.44,SSE,147,12.0,27.0,72,0.00,,---,0.27,VWS V14.01,2013-01-29 22:52:00,
2013-01-29 16:57:00,73.2,64.4,29.45,SE,146,14.0,27.0,74,0.00,,---,0.27,VWS V14.01,2013-01-29 22:57:00,
2013-01-29 17:02:00,73.3,64.9,29.45,SSE,167,17.0,23.0,75,0.00,,---,0.27,VWS V14.01,2013-01-29 23:02:00,
2013-01-29 17:07:00,74.2,65.4,29.45,SSE,165,13.0,23.0,74,0.00,,---,0.27,VWS V14.01,2013-01-29 23:07:00,
2013-01-29 17:12:00,74.6,65.4,29.45,SSE,161,5.0,23.0,73,0.00,,---,0.27,VWS V14.01,2013-01-29 23:12:00,
2013-01-29 17:17:00,74.9,65.7,29.44,SSE,167,16.0,28.0,73,0.00,,---,0.27,VWS V14.01,2013-01-29 23:17:00,
2013-01-29 17:22:00,74.8,65.2,29.44,SSE,162,15.0,28.0,72,0.00,,---,0.27,VWS V14.01,2013-01-29 23:22:00,
2013-01-29 17:27:00,74.4,65.2,29.44,SSE,163,14.0,28.0,73,0.00,,---,0.27,VWS V14.01,2013-01-29 23:27:00,
2013-01-29 17:32:00,74.2,65.0,29.43,South,186,9.0,17.0,73,0.00,,---,0.27,VWS V14.01,2013-01-29 23:32:00,
2013-01-29 17:37:00,73.3,64.1,29.43,SSE,157,9.0,17.0,73,0.00,,---,0.27,VWS V14.01,2013-01-29 23:37:00,
2013-01-29 17:42:00,73.2,64.8,29.43,South,170,15.0,18.0,75,0.00,,---,0.27,VWS V14.01,2013-01-29 23:42:00,
2013-01-29 17:47:00,73.2,64.8,29.43,South,176,15.0,18.0,75,0.00,,---,0.27,VWS V14.01,2013-01-29 23:47:00,
2013-01-29 17:52:00,73.6,65.2,29.45,SW,234,12.0,20.0,75,0.00,,---,0.27,VWS V14.01,2013-01-29 23:52:00,
2013-01-29 17:57:00,69.6,55.1,29.50,East,80,6.0,32.0,60,0.00,,---,0.27,VWS V14.01,2013-01-29 23:57:00,
2013-01-29 18:02:00,66.0,54.3,29.48,NNE,13,10.0,28.0,66,0.00,,---,0.27,VWS V14.01,2013-01-30 00:02:00,
2013-01-29 18:07:00,62.8,54.4,29.49,WSW,239,13.0,35.0,74,0.00,,---,0.27,VWS V14.01,2013-01-30 00:07:00,
2013-01-29 18:12:00,58.9,54.4,29.50,WNW,296,17.0,35.0,85,0.07,,---,0.35,VWS V14.01,2013-01-30 00:12:00,
2013-01-29 18:17:00,56.4,53.8,29.51,NW,311,14.0,35.0,91,0.21,,---,0.48,VWS V14.01,2013-01-30 00:17:00,
2013-01-29 18:22:00,55.7,53.7,29.52,WNW,283,9.0,35.0,93,0.23,,---,0.50,VWS V14.01,2013-01-30 00:22:00,
2013-01-29 18:27:00,55.5,53.8,29.52,WNW,297,8.0,35.0,94,0.23,,---,0.50,VWS V14.01,2013-01-30 00:27:00,
2013-01-29 18:32:00,55.4,54.0,29.53,NW,323,3.0,13.0,95,0.24,,---,0.51,VWS V14.01,2013-01-30 00:32:00,
2013-01-29 18:37:00,55.4,54.0,29.54,North,351,7.0,13.0,95,0.25,,---,0.52,VWS V14.01,2013-01-30 00:37:00,
2013-01-29 18:42:00,55.5,53.8,29.55,WNW,296,10.0,13.0,94,0.26,,---,0.53,VWS V14.01,2013-01-30 00:42:00,
2013-01-29 18:47:00,55.6,53.9,29.55,NE,39,4.0,13.0,94,0.27,,---,0.54,VWS V14.01,2013-01-30 00:47:00,
2013-01-29 18:52:00,55.6,53.9,29.56,ESE,117,2.0,13.0,94,0.28,,---,0.55,VWS V14.01,2013-01-30 00:52:00,
2013-01-29 18:57:00,55.7,54.0,29.57,WNW,303,5.0,13.0,94,0.28,,---,0.55,VWS V14.01,2013-01-30 00:57:00,
2013-01-29 19:02:00,55.8,54.1,29.58,WNW,293,7.0,11.0,94,0.29,,---,0.56,VWS V14.01,2013-01-30 01:02:00,
2013-01-29 19:07:00,55.9,54.2,29.58,WNW,301,9.0,11.0,94,0.32,,---,0.59,VWS V14.01,2013-01-30 01:07:00,
2013-01-29 19:12:00,56.1,54.1,29.58,NW,305,6.0,16.0,93,0.32,,---,0.59,VWS V14.01,2013-01-30 01:12:00,
2013-01-29 19:17:00,56.3,54.0,29.58,WNW,297,13.0,17.0,92,0.33,,---,0.60,VWS V14.01,2013-01-30 01:17:00,
2013-01-29 19:22:00,56.3,53.7,29.58,NW,307,7.0,17.0,91,0.34,,---,0.61,VWS V14.01,2013-01-30 01:22:00,
2013-01-29 19:27:00,56.3,54.0,29.60,NW,309,10.0,17.0,92,0.35,,---,0.62,VWS V14.01,2013-01-30 01:27:00,
2013-01-29 19:32:00,56.2,53.9,29.60,NW,311,9.0,9.0,92,0.12,,---,0.63,VWS V14.01,2013-01-30 01:32:00,
2013-01-29 19:37:00,56.2,53.9,29.62,WNW,300,14.0,15.0,92,0.13,,---,0.64,VWS V14.01,2013-01-30 01:37:00,
2013-01-29 19:42:00,56.2,53.9,29.62,WNW,302,6.0,16.0,92,0.14,,---,0.65,VWS V14.01,2013-01-30 01:42:00,
2013-01-29 19:47:00,56.3,54.0,29.61,WNW,300,8.0,16.0,92,0.14,,---,0.65,VWS V14.01,2013-01-30 01:47:00,
2013-01-29 19:52:00,56.4,54.1,29.61,NW,307,8.0,16.0,92,0.14,,---,0.65,VWS V14.01,2013-01-30 01:52:00,
2013-01-29 19:57:00,56.4,53.5,29.61,WNW,300,5.0,16.0,90,0.14,,---,0.65,VWS V14.01,2013-01-30 01:57:00,
2013-01-29 20:02:00,56.5,53.0,29.62,NW,311,6.0,14.0,88,0.09,,---,0.65,VWS V14.01,2013-01-30 02:02:00,
2013-01-29 20:07:00,56.3,51.9,29.60,West,280,10.0,14.0,85,0.09,,---,0.65,VWS V14.01,2013-01-30 02:07:00,
2013-01-29 20:12:00,56.1,51.7,29.61,WNW,294,8.0,15.0,85,0.09,,---,0.65,VWS V14.01,2013-01-30 02:12:00,
2013-01-29 20:17:00,55.9,52.1,29.61,WNW,298,5.0,15.0,87,0.09,,---,0.65,VWS V14.01,2013-01-30 02:17:00,
2013-01-29 20:22:00,55.7,52.2,29.61,WNW,298,7.0,15.0,88,0.09,,---,0.65,VWS V14.01,2013-01-30 02:22:00,
2013-01-29 20:27:00,55.7,52.2,29.61,NW,326,6.0,15.0,88,0.09,,---,0.65,VWS V14.01,2013-01-30 02:27:00,
2013-01-29 20:32:00,55.5,51.4,29.60,NW,305,8.0,11.0,86,0.02,,---,0.65,VWS V14.01,2013-01-30 02:32:00,
2013-01-29 20:37:00,55.5,51.7,29.60,WNW,300,7.0,11.0,87,0.02,,---,0.65,VWS V14.01,2013-01-30 02:37:00,
2013-01-29 20:42:00,55.4,51.6,29.60,WNW,297,5.0,11.0,87,0.02,,---,0.65,VWS V14.01,2013-01-30 02:42:00,
2013-01-29 20:47:00,55.4,51.6,29.60,WNW,293,1.0,11.0,87,0.02,,---,0.65,VWS V14.01,2013-01-30 02:47:00,
2013-01-29 20:52:00,55.3,51.8,29.60,WNW,297,0.0,11.0,88,0.02,,---,0.65,VWS V14.01,2013-01-30 02:52:00,
2013-01-29 20:57:00,55.1,51.9,29.60,SSE,159,1.0,11.0,89,0.02,,---,0.65,VWS V14.01,2013-01-30 02:57:00,
2013-01-29 21:02:00,54.9,52.0,29.60,SSE,160,1.0,3.0,90,0.00,,---,0.65,VWS V14.01,2013-01-30 03:02:00,
2013-01-29 21:07:00,54.7,51.8,29.61,SSE,163,4.0,4.0,90,0.00,,---,0.65,VWS V14.01,2013-01-30 03:07:00,
2013-01-29 21:12:00,54.5,51.6,29.61,SE,144,1.0,4.0,90,0.00,,---,0.65,VWS V14.01,2013-01-30 03:12:00,
2013-01-29 21:17:00,54.3,51.4,29.62,South,172,3.0,6.0,90,0.00,,---,0.65,VWS V14.01,2013-01-30 03:17:00,
2013-01-29 21:22:00,54.4,51.5,29.66,SSE,158,5.0,8.0,90,0.00,,---,0.65,VWS V14.01,2013-01-30 03:22:00,
2013-01-29 21:27:00,54.3,51.1,29.65,South,173,5.0,9.0,89,0.00,,---,0.65,VWS V14.01,2013-01-30 03:27:00,
2013-01-29 21:32:00,54.3,50.8,29.64,SSE,159,2.0,3.0,88,0.00,,---,0.65,VWS V14.01,2013-01-30 03:32:00,
2013-01-29 21:37:00,54.3,50.8,29.63,SSE,166,3.0,5.0,88,0.00,,---,0.65,VWS V14.01,2013-01-30 03:37:00,
2013-01-29 21:42:00,54.2,50.7,29.62,SSE,164,0.0,5.0,88,0.00,,---,0.65,VWS V14.01,2013-01-30 03:42:00,
2013-01-29 21:47:00,54.0,50.8,29.63,SW,219,0.0,5.0,89,0.00,,---,0.65,VWS V14.01,2013-01-30 03:47:00,
2013-01-29 21:52:00,54.0,50.8,29.64,South,188,3.0,5.0,89,0.00,,---,0.65,VWS V14.01,2013-01-30 03:52:00,
2013-01-29 21:57:00,54.0,51.1,29.64,SSE,162,1.0,5.0,90,0.00,,---,0.65,VWS V14.01,2013-01-30 03:57:00,
2013-01-29 22:02:00,54.1,51.5,29.61,SW,236,0.0,1.0,91,0.00,,---,0.65,VWS V14.01,2013-01-30 04:02:00,
2013-01-29 22:07:00,54.0,51.4,29.62,SW,231,0.0,1.0,91,0.01,,---,0.66,VWS V14.01,2013-01-30 04:07:00,
2013-01-29 22:12:00,54.0,51.7,29.61,SSE,151,2.0,2.0,92,0.01,,---,0.66,VWS V14.01,2013-01-30 04:12:00,
2013-01-29 22:17:00,54.0,51.7,29.62,WSW,237,2.0,2.0,92,0.01,,---,0.66,VWS V14.01,2013-01-30 04:17:00,
2013-01-29 22:22:00,53.9,51.6,29.63,SW,226,2.0,4.0,92,0.01,,---,0.66,VWS V14.01,2013-01-30 04:22:00,
2013-01-29 22:27:00,53.8,51.8,29.65,SSW,195,3.0,4.0,93,0.01,,---,0.66,VWS V14.01,2013-01-30 04:27:00,
2013-01-29 22:32:00,53.7,51.7,29.66,SSE,159,4.0,7.0,93,0.01,,---,0.66,VWS V14.01,2013-01-30 04:32:00,
2013-01-29 22:37:00,53.8,51.8,29.65,SSE,160,4.0,7.0,93,0.01,,---,0.66,VWS V14.01,2013-01-30 04:37:00,
2013-01-29 22:42:00,53.9,51.6,29.64,South,169,3.0,7.0,92,0.01,,---,0.66,VWS V14.01,2013-01-30 04:42:00,
2013-01-29 22:47:00,53.9,51.6,29.63,South,173,3.0,7.0,92,0.01,,---,0.66,VWS V14.01,2013-01-30 04:47:00,
2013-01-29 22:52:00,53.9,51.6,29.63,SW,219,1.0,7.0,92,0.01,,---,0.66,VWS V14.01,2013-01-30 04:52:00,
2013-01-29 22:57:00,53.8,51.5,29.62,SW,230,0.0,7.0,92,0.01,,---,0.66,VWS V14.01,2013-01-30 04:57:00,
2013-01-29 23:00:00,53.8,51.5,29.63,SW,215,1.0,7.0,92,0.01,,---,0.66,VWS V14.01,2013-01-30 05:00:00,
2013-01-29 23:01:00,53.8,51.5,29.63,WSW,253,1.0,7.0,92,0.01,,---,0.66,VWS V14.01,2013-01-30 05:01:00,
2013-01-29 23:03:00,53.8,51.5,29.63,SSW,212,2.0,3.0,92,0.01,,---,0.66,VWS V14.01,2013-01-30 05:03:00,
2013-01-29 23:08:00,53.8,51.5,29.63,SW,224,4.0,4.0,92,0.01,,---,0.66,VWS V14.01,2013-01-30 05:08:00,
2013-01-29 23:13:00,53.8,51.5,29.64,SW,217,4.0,4.0,92,0.01,,---,0.66,VWS V14.01,2013-01-30 05:13:00,
2013-01-29 23:18:00,53.8,51.5,29.65,SSW,196,3.0,5.0,92,0.01,,---,0.66,VWS V14.01,2013-01-30 05:18:00,
2013-01-29 23:23:00,53.8,51.2,29.65,SSE,167,4.0,10.0,91,0.01,,---,0.66,VWS V14.01,2013-01-30 05:23:00,
2013-01-29 23:28:00,54.2,50.7,29.65,South,170,7.0,10.0,88,0.01,,---,0.66,VWS V14.01,2013-01-30 05:28:00,
2013-01-29 23:33:00,54.7,50.6,29.65,South,183,4.0,8.0,86,0.00,,---,0.66,VWS V14.01,2013-01-30 05:33:00,
2013-01-29 23:38:00,54.9,50.5,29.63,SSW,208,3.0,8.0,85,0.00,,---,0.66,VWS V14.01,2013-01-30 05:38:00,
2013-01-29 23:43:00,55.1,50.0,29.63,SW,222,7.0,8.0,83,0.00,,---,0.66,VWS V14.01,2013-01-30 05:43:00,
2013-01-29 23:48:00,55.2,50.1,29.65,SSW,207,5.0,8.0,83,0.00,,---,0.66,VWS V14.01,2013-01-30 05:48:00,
2013-01-29 23:53:00,55.1,50.4,29.64,SSW,196,4.0,8.0,84,0.00,,---,0.66,VWS V14.01,2013-01-30 05:53:00,
2013-01-29 23:58:00,55.1,50.0,29.65,SW,219,4.0,8.0,83,0.00,,---,0.66,VWS V14.01,2013-01-30 05:58:00,